sensor_id;sensor_type;location;lat;lon;timestamp;P1;durP1;ratioP1;P2;durP2;ratioP2
15958;SDS011;8078;47.822;9.402;2023-04-01T00:00:50;3.53;;;1.67;;
15958;SDS011;8078;47.822;9.402;2023-04-01T00:03:19;5.00;;;1.83;;
15958;SDS011;8078;47.822;9.402;2023-04-01T00:05:46;2.70;;;1.97;;
15958;SDS011;8078;47.822;9.402;2023-04-01T00:08:11;4.90;;;1.90;;
15958;SDS011;8078;47.822;9.402;2023-04-01T00:10:37;5.60;;;1.87;;
15958;SDS011;8078;47.822;9.402;2023-04-01T00:13:03;2.10;;;1.90;;
15958;SDS011;8078;47.822;9.402;2023-04-01T00:15:29;4.17;;;2.30;;
15958;SDS011;8078;47.822;9.402;2023-04-01T00:17:54;4.33;;;2.10;;
15958;SDS011;8078;47.822;9.402;2023-04-01T00:20:20;4.20;;;2.10;;
15958;SDS011;8078;47.822;9.402;2023-04-01T00:22:46;3.03;;;2.10;;
15958;SDS011;8078;47.822;9.402;2023-04-01T00:25:11;3.67;;;2.13;;
15958;SDS011;8078;47.822;9.402;2023-04-01T00:27:37;6.40;;;2.20;;
15958;SDS011;8078;47.822;9.402;2023-04-01T00:30:03;5.93;;;2.10;;
15958;SDS011;8078;47.822;9.402;2023-04-01T00:32:29;3.70;;;2.20;;
15958;SDS011;8078;47.822;9.402;2023-04-01T00:34:56;6.17;;;2.33;;
15958;SDS011;8078;47.822;9.402;2023-04-01T00:37:24;5.13;;;2.30;;
15958;SDS011;8078;47.822;9.402;2023-04-01T00:39:49;6.70;;;2.37;;
15958;SDS011;8078;47.822;9.402;2023-04-01T00:42:15;3.33;;;2.33;;
15958;SDS011;8078;47.822;9.402;2023-04-01T00:44:41;5.87;;;2.37;;
15958;SDS011;8078;47.822;9.402;2023-04-01T00:47:07;2.77;;;2.23;;
15958;SDS011;8078;47.822;9.402;2023-04-01T00:49:34;5.97;;;1.90;;
15958;SDS011;8078;47.822;9.402;2023-04-01T00:52:04;3.33;;;2.30;;
15958;SDS011;8078;47.822;9.402;2023-04-01T00:54:32;14.43;;;2.97;;
15958;SDS011;8078;47.822;9.402;2023-04-01T00:57:00;3.90;;;2.53;;
15958;SDS011;8078;47.822;9.402;2023-04-01T00:59:33;93.27;;;6.40;;
15958;SDS011;8078;47.822;9.402;2023-04-01T01:02:02;19.47;;;3.27;;
15958;SDS011;8078;47.822;9.402;2023-04-01T01:04:29;4.13;;;2.17;;
15958;SDS011;8078;47.822;9.402;2023-04-01T01:12:23;35.20;;;4.40;;
15958;SDS011;8078;47.822;9.402;2023-04-01T01:17:38;87.97;;;7.73;;
15958;SDS011;8078;47.822;9.402;2023-04-01T01:20:19;29.60;;;3.67;;
15958;SDS011;8078;47.822;9.402;2023-04-01T01:29:16;75.60;;;4.63;;
15958;SDS011;8078;47.822;9.402;2023-04-01T01:34:36;23.87;;;3.47;;
15958;SDS011;8078;47.822;9.402;2023-04-01T01:37:13;64.97;;;4.43;;
15958;SDS011;8078;47.822;9.402;2023-04-01T01:39:42;31.00;;;3.40;;
15958;SDS011;8078;47.822;9.402;2023-04-01T01:42:11;45.60;;;3.47;;
15958;SDS011;8078;47.822;9.402;2023-04-01T01:44:40;95.30;;;6.77;;
15958;SDS011;8078;47.822;9.402;2023-04-01T01:47:09;12.13;;;2.53;;
15958;SDS011;8078;47.822;9.402;2023-04-01T01:49:35;29.77;;;3.20;;
15958;SDS011;8078;47.822;9.402;2023-04-01T01:52:03;85.23;;;5.07;;
15958;SDS011;8078;47.822;9.402;2023-04-01T01:54:29;52.70;;;4.20;;
15958;SDS011;8078;47.822;9.402;2023-04-01T01:57:05;16.30;;;3.20;;
15958;SDS011;8078;47.822;9.402;2023-04-01T01:59:33;31.67;;;3.70;;
15958;SDS011;8078;47.822;9.402;2023-04-01T02:02:03;86.43;;;8.67;;
15958;SDS011;8078;47.822;9.402;2023-04-01T02:04:34;125.87;;;7.33;;
15958;SDS011;8078;47.822;9.402;2023-04-01T02:07:04;88.77;;;6.47;;
15958;SDS011;8078;47.822;9.402;2023-04-01T02:09:34;134.50;;;8.37;;
15958;SDS011;8078;47.822;9.402;2023-04-01T02:12:04;104.77;;;8.70;;
15958;SDS011;8078;47.822;9.402;2023-04-01T02:14:39;64.97;;;5.43;;
15958;SDS011;8078;47.822;9.402;2023-04-01T02:17:17;79.30;;;4.47;;
15958;SDS011;8078;47.822;9.402;2023-04-01T02:19:56;59.43;;;5.20;;
15958;SDS011;8078;47.822;9.402;2023-04-01T02:22:28;143.53;;;9.10;;
15958;SDS011;8078;47.822;9.402;2023-04-01T02:25:00;85.17;;;5.73;;
15958;SDS011;8078;47.822;9.402;2023-04-01T02:27:29;106.20;;;6.60;;
15958;SDS011;8078;47.822;9.402;2023-04-01T02:29:55;119.63;;;8.30;;
15958;SDS011;8078;47.822;9.402;2023-04-01T02:32:21;145.10;;;7.50;;
15958;SDS011;8078;47.822;9.402;2023-04-01T02:34:47;139.00;;;8.80;;
15958;SDS011;8078;47.822;9.402;2023-04-01T02:37:13;152.77;;;8.23;;
15958;SDS011;8078;47.822;9.402;2023-04-01T02:39:40;44.73;;;3.77;;
15958;SDS011;8078;47.822;9.402;2023-04-01T02:42:07;116.37;;;6.07;;
15958;SDS011;8078;47.822;9.402;2023-04-01T02:44:33;163.50;;;8.83;;
15958;SDS011;8078;47.822;9.402;2023-04-01T02:46:58;142.63;;;9.30;;
15958;SDS011;8078;47.822;9.402;2023-04-01T02:49:24;143.30;;;9.20;;
15958;SDS011;8078;47.822;9.402;2023-04-01T02:51:49;167.60;;;11.10;;
15958;SDS011;8078;47.822;9.402;2023-04-01T02:54:16;82.00;;;8.90;;
15958;SDS011;8078;47.822;9.402;2023-04-01T02:56:42;195.73;;;14.37;;
15958;SDS011;8078;47.822;9.402;2023-04-01T02:59:08;49.70;;;8.23;;
15958;SDS011;8078;47.822;9.402;2023-04-01T03:01:34;117.83;;;11.13;;
15958;SDS011;8078;47.822;9.402;2023-04-01T03:03:59;235.47;;;14.97;;
15958;SDS011;8078;47.822;9.402;2023-04-01T03:06:25;213.63;;;14.30;;
15958;SDS011;8078;47.822;9.402;2023-04-01T03:08:52;9.00;;;4.30;;
15958;SDS011;8078;47.822;9.402;2023-04-01T03:11:17;56.03;;;7.07;;
15958;SDS011;8078;47.822;9.402;2023-04-01T03:13:43;197.43;;;12.47;;
15958;SDS011;8078;47.822;9.402;2023-04-01T03:16:09;180.60;;;13.30;;
15958;SDS011;8078;47.822;9.402;2023-04-01T03:18:34;177.50;;;14.87;;
15958;SDS011;8078;47.822;9.402;2023-04-01T03:21:13;98.97;;;11.60;;
15958;SDS011;8078;47.822;9.402;2023-04-01T03:23:43;33.97;;;5.50;;
15958;SDS011;8078;47.822;9.402;2023-04-01T03:26:09;60.23;;;7.30;;
15958;SDS011;8078;47.822;9.402;2023-04-01T03:28:36;57.47;;;7.20;;
15958;SDS011;8078;47.822;9.402;2023-04-01T03:31:01;47.37;;;6.60;;
15958;SDS011;8078;47.822;9.402;2023-04-01T03:33:27;44.20;;;5.97;;
15958;SDS011;8078;47.822;9.402;2023-04-01T03:35:53;33.83;;;5.43;;
15958;SDS011;8078;47.822;9.402;2023-04-01T03:38:19;11.70;;;4.80;;
15958;SDS011;8078;47.822;9.402;2023-04-01T03:40:45;110.17;;;10.03;;
15958;SDS011;8078;47.822;9.402;2023-04-01T03:43:10;112.53;;;9.23;;
15958;SDS011;8078;47.822;9.402;2023-04-01T03:45:43;28.07;;;4.57;;
15958;SDS011;8078;47.822;9.402;2023-04-01T03:48:09;34.60;;;5.60;;
15958;SDS011;8078;47.822;9.402;2023-04-01T03:50:35;9.20;;;4.10;;
15958;SDS011;8078;47.822;9.402;2023-04-01T03:53:00;9.27;;;3.43;;
15958;SDS011;8078;47.822;9.402;2023-04-01T03:55:26;7.83;;;3.70;;
15958;SDS011;8078;47.822;9.402;2023-04-01T03:57:52;10.30;;;4.10;;
15958;SDS011;8078;47.822;9.402;2023-04-01T04:00:17;8.80;;;3.73;;
15958;SDS011;8078;47.822;9.402;2023-04-01T04:02:43;19.10;;;4.33;;
15958;SDS011;8078;47.822;9.402;2023-04-01T04:05:09;6.07;;;3.73;;
15958;SDS011;8078;47.822;9.402;2023-04-01T04:07:35;8.30;;;2.80;;
15958;SDS011;8078;47.822;9.402;2023-04-01T04:10:01;6.53;;;3.17;;
15958;SDS011;8078;47.822;9.402;2023-04-01T04:12:27;7.27;;;3.20;;
15958;SDS011;8078;47.822;9.402;2023-04-01T04:14:52;8.63;;;3.20;;
15958;SDS011;8078;47.822;9.402;2023-04-01T04:17:18;9.10;;;2.63;;
15958;SDS011;8078;47.822;9.402;2023-04-01T04:19:43;5.53;;;2.53;;
15958;SDS011;8078;47.822;9.402;2023-04-01T04:22:09;4.50;;;2.57;;
15958;SDS011;8078;47.822;9.402;2023-04-01T04:24:35;8.20;;;2.67;;
15958;SDS011;8078;47.822;9.402;2023-04-01T04:27:01;10.00;;;3.13;;
15958;SDS011;8078;47.822;9.402;2023-04-01T04:29:27;9.73;;;2.40;;
15958;SDS011;8078;47.822;9.402;2023-04-01T04:31:52;9.43;;;3.00;;
15958;SDS011;8078;47.822;9.402;2023-04-01T04:34:18;7.33;;;2.90;;
15958;SDS011;8078;47.822;9.402;2023-04-01T04:36:44;6.57;;;2.57;;
15958;SDS011;8078;47.822;9.402;2023-04-01T04:39:09;6.63;;;2.30;;
15958;SDS011;8078;47.822;9.402;2023-04-01T04:41:36;10.63;;;2.77;;
15958;SDS011;8078;47.822;9.402;2023-04-01T04:44:02;6.93;;;3.23;;
15958;SDS011;8078;47.822;9.402;2023-04-01T04:46:29;7.23;;;1.90;;
15958;SDS011;8078;47.822;9.402;2023-04-01T04:48:55;9.60;;;2.70;;
15958;SDS011;8078;47.822;9.402;2023-04-01T04:51:21;7.30;;;2.73;;
15958;SDS011;8078;47.822;9.402;2023-04-01T04:53:47;8.73;;;2.93;;
15958;SDS011;8078;47.822;9.402;2023-04-01T04:56:16;6.10;;;2.43;;
15958;SDS011;8078;47.822;9.402;2023-04-01T04:58:43;9.10;;;2.27;;
15958;SDS011;8078;47.822;9.402;2023-04-01T05:01:09;6.57;;;2.27;;
15958;SDS011;8078;47.822;9.402;2023-04-01T05:03:37;6.20;;;2.20;;
15958;SDS011;8078;47.822;9.402;2023-04-01T05:06:03;5.17;;;2.20;;
15958;SDS011;8078;47.822;9.402;2023-04-01T05:08:30;6.37;;;2.53;;
15958;SDS011;8078;47.822;9.402;2023-04-01T05:10:57;7.90;;;2.30;;
15958;SDS011;8078;47.822;9.402;2023-04-01T05:13:23;5.10;;;2.13;;
15958;SDS011;8078;47.822;9.402;2023-04-01T05:15:49;5.60;;;2.20;;
15958;SDS011;8078;47.822;9.402;2023-04-01T05:18:14;2.40;;;2.00;;
15958;SDS011;8078;47.822;9.402;2023-04-01T05:20:45;5.97;;;2.67;;
15958;SDS011;8078;47.822;9.402;2023-04-01T05:23:12;3.10;;;1.93;;
15958;SDS011;8078;47.822;9.402;2023-04-01T05:25:38;4.40;;;1.90;;
15958;SDS011;8078;47.822;9.402;2023-04-01T05:28:03;4.70;;;2.13;;
15958;SDS011;8078;47.822;9.402;2023-04-01T05:30:29;4.33;;;1.80;;
15958;SDS011;8078;47.822;9.402;2023-04-01T05:32:54;3.87;;;2.30;;
15958;SDS011;8078;47.822;9.402;2023-04-01T05:35:20;4.17;;;2.10;;
15958;SDS011;8078;47.822;9.402;2023-04-01T05:37:45;3.70;;;1.93;;
15958;SDS011;8078;47.822;9.402;2023-04-01T05:40:11;4.33;;;2.23;;
15958;SDS011;8078;47.822;9.402;2023-04-01T05:42:37;8.60;;;2.30;;
15958;SDS011;8078;47.822;9.402;2023-04-01T05:45:02;9.57;;;3.17;;
15958;SDS011;8078;47.822;9.402;2023-04-01T05:47:28;3.80;;;2.37;;
15958;SDS011;8078;47.822;9.402;2023-04-01T05:49:54;4.43;;;2.80;;
15958;SDS011;8078;47.822;9.402;2023-04-01T05:52:20;11.07;;;3.20;;
15958;SDS011;8078;47.822;9.402;2023-04-01T05:54:46;31.87;;;4.23;;
15958;SDS011;8078;47.822;9.402;2023-04-01T05:57:11;6.90;;;2.90;;
15958;SDS011;8078;47.822;9.402;2023-04-01T05:59:37;24.37;;;4.03;;
15958;SDS011;8078;47.822;9.402;2023-04-01T06:02:02;16.23;;;3.67;;
15958;SDS011;8078;47.822;9.402;2023-04-01T06:04:28;6.47;;;3.10;;
15958;SDS011;8078;47.822;9.402;2023-04-01T06:06:59;6.20;;;2.93;;
15958;SDS011;8078;47.822;9.402;2023-04-01T06:09:29;4.13;;;2.50;;
15958;SDS011;8078;47.822;9.402;2023-04-01T06:17:19;4.00;;;2.10;;
15958;SDS011;8078;47.822;9.402;2023-04-01T06:20:11;5.60;;;2.10;;
15958;SDS011;8078;47.822;9.402;2023-04-01T06:22:48;3.53;;;1.63;;
15958;SDS011;8078;47.822;9.402;2023-04-01T06:26:10;1.87;;;1.70;;
15958;SDS011;8078;47.822;9.402;2023-04-01T06:28:44;2.93;;;2.10;;
15958;SDS011;8078;47.822;9.402;2023-04-01T06:45:30;4.73;;;1.93;;
15958;SDS011;8078;47.822;9.402;2023-04-01T06:51:02;2.53;;;2.00;;
15958;SDS011;8078;47.822;9.402;2023-04-01T06:56:08;1.57;;;1.47;;
15958;SDS011;8078;47.822;9.402;2023-04-01T07:01:08;3.83;;;1.50;;
15958;SDS011;8078;47.822;9.402;2023-04-01T07:03:44;3.70;;;1.60;;
15958;SDS011;8078;47.822;9.402;2023-04-01T07:06:59;2.47;;;1.60;;
15958;SDS011;8078;47.822;9.402;2023-04-01T07:09:11;1.60;;;1.50;;
15958;SDS011;8078;47.822;9.402;2023-04-01T07:11:40;2.27;;;1.50;;
15958;SDS011;8078;47.822;9.402;2023-04-01T07:14:49;1.60;;;1.50;;
15958;SDS011;8078;47.822;9.402;2023-04-01T07:19:29;1.50;;;1.40;;
15958;SDS011;8078;47.822;9.402;2023-04-01T07:22:04;1.67;;;1.53;;
15958;SDS011;8078;47.822;9.402;2023-04-01T07:24:39;1.40;;;1.30;;
15958;SDS011;8078;47.822;9.402;2023-04-01T07:27:12;2.00;;;1.53;;
15958;SDS011;8078;47.822;9.402;2023-04-01T07:29:38;3.47;;;1.70;;
15958;SDS011;8078;47.822;9.402;2023-04-01T07:34:55;2.10;;;1.50;;
15958;SDS011;8078;47.822;9.402;2023-04-01T07:40:11;1.60;;;1.50;;
15958;SDS011;8078;47.822;9.402;2023-04-01T07:43:01;3.00;;;1.40;;
15958;SDS011;8078;47.822;9.402;2023-04-01T07:45:52;1.50;;;1.40;;
15958;SDS011;8078;47.822;9.402;2023-04-01T07:48:52;1.50;;;1.40;;
15958;SDS011;8078;47.822;9.402;2023-04-01T07:51:51;2.33;;;1.40;;
15958;SDS011;8078;47.822;9.402;2023-04-01T07:57:04;1.60;;;1.50;;
15958;SDS011;8078;47.822;9.402;2023-04-01T07:59:36;2.10;;;1.40;;
15958;SDS011;8078;47.822;9.402;2023-04-01T08:02:14;1.50;;;1.40;;
15958;SDS011;8078;47.822;9.402;2023-04-01T08:16:20;1.70;;;1.30;;
15958;SDS011;8078;47.822;9.402;2023-04-01T08:19:06;1.70;;;1.30;;
15958;SDS011;8078;47.822;9.402;2023-04-01T08:21:43;1.80;;;1.60;;
15958;SDS011;8078;47.822;9.402;2023-04-01T08:24:18;1.67;;;1.40;;
15958;SDS011;8078;47.822;9.402;2023-04-01T08:26:52;1.67;;;1.40;;
15958;SDS011;8078;47.822;9.402;2023-04-01T08:29:22;1.50;;;1.40;;
15958;SDS011;8078;47.822;9.402;2023-04-01T08:34:34;1.43;;;1.40;;
15958;SDS011;8078;47.822;9.402;2023-04-01T08:37:04;1.37;;;1.30;;
15958;SDS011;8078;47.822;9.402;2023-04-01T08:39:44;2.13;;;1.30;;
15958;SDS011;8078;47.822;9.402;2023-04-01T08:48:12;1.37;;;1.20;;
15958;SDS011;8078;47.822;9.402;2023-04-01T08:50:50;1.37;;;1.27;;
15958;SDS011;8078;47.822;9.402;2023-04-01T08:59:25;1.50;;;1.40;;
15958;SDS011;8078;47.822;9.402;2023-04-01T09:02:19;1.40;;;1.30;;
15958;SDS011;8078;47.822;9.402;2023-04-01T09:11:16;1.23;;;1.23;;
15958;SDS011;8078;47.822;9.402;2023-04-01T09:33:41;1.57;;;1.30;;
15958;SDS011;8078;47.822;9.402;2023-04-01T09:36:35;1.87;;;1.27;;
15958;SDS011;8078;47.822;9.402;2023-04-01T09:39:13;1.20;;;1.10;;
15958;SDS011;8078;47.822;9.402;2023-04-01T09:44:30;2.93;;;1.20;;
15958;SDS011;8078;47.822;9.402;2023-04-01T09:47:05;1.40;;;1.30;;
15958;SDS011;8078;47.822;9.402;2023-04-01T10:13:56;1.50;;;1.40;;
15958;SDS011;8078;47.822;9.402;2023-04-01T10:27:16;1.20;;;1.10;;
15958;SDS011;8078;47.822;9.402;2023-04-01T10:49:26;1.10;;;1.10;;
15958;SDS011;8078;47.822;9.402;2023-04-01T11:06:18;1.13;;;1.13;;
15958;SDS011;8078;47.822;9.402;2023-04-01T11:12:08;1.83;;;1.20;;
15958;SDS011;8078;47.822;9.402;2023-04-01T11:28:54;1.83;;;1.30;;
15958;SDS011;8078;47.822;9.402;2023-04-01T11:36:55;1.20;;;1.20;;
15958;SDS011;8078;47.822;9.402;2023-04-01T11:48:12;1.30;;;1.20;;
15958;SDS011;8078;47.822;9.402;2023-04-01T11:51:15;1.57;;;1.13;;
15958;SDS011;8078;47.822;9.402;2023-04-01T11:54:06;1.30;;;1.20;;
15958;SDS011;8078;47.822;9.402;2023-04-01T11:59:43;2.20;;;1.40;;
15958;SDS011;8078;47.822;9.402;2023-04-01T12:11:28;1.20;;;1.20;;
15958;SDS011;8078;47.822;9.402;2023-04-01T12:14:03;1.10;;;1.10;;
15958;SDS011;8078;47.822;9.402;2023-04-01T12:22:28;1.27;;;1.10;;
15958;SDS011;8078;47.822;9.402;2023-04-01T12:25:21;1.20;;;1.20;;
15958;SDS011;8078;47.822;9.402;2023-04-01T12:34:00;2.40;;;1.23;;
15958;SDS011;8078;47.822;9.402;2023-04-01T12:36:37;1.23;;;1.17;;
15958;SDS011;8078;47.822;9.402;2023-04-01T12:47:31;2.13;;;1.23;;
15958;SDS011;8078;47.822;9.402;2023-04-01T12:53:14;1.07;;;1.00;;
15958;SDS011;8078;47.822;9.402;2023-04-01T12:55:44;1.80;;;1.30;;
15958;SDS011;8078;47.822;9.402;2023-04-01T13:01:25;1.20;;;1.10;;
15958;SDS011;8078;47.822;9.402;2023-04-01T13:04:47;1.20;;;1.20;;
15958;SDS011;8078;47.822;9.402;2023-04-01T13:07:16;1.07;;;1.07;;
15958;SDS011;8078;47.822;9.402;2023-04-01T13:23:29;1.20;;;1.20;;
15958;SDS011;8078;47.822;9.402;2023-04-01T13:26:04;1.30;;;1.20;;
15958;SDS011;8078;47.822;9.402;2023-04-01T13:28:45;1.00;;;1.00;;
15958;SDS011;8078;47.822;9.402;2023-04-01T13:31:26;1.23;;;1.13;;
15958;SDS011;8078;47.822;9.402;2023-04-01T13:39:29;1.10;;;1.10;;
15958;SDS011;8078;47.822;9.402;2023-04-01T13:50:35;1.00;;;1.00;;
15958;SDS011;8078;47.822;9.402;2023-04-01T13:58:26;1.73;;;1.10;;
15958;SDS011;8078;47.822;9.402;2023-04-01T14:01:09;1.10;;;1.10;;
15958;SDS011;8078;47.822;9.402;2023-04-01T14:07:12;1.13;;;1.13;;
15958;SDS011;8078;47.822;9.402;2023-04-01T14:09:57;1.00;;;1.00;;
15958;SDS011;8078;47.822;9.402;2023-04-01T14:12:42;1.07;;;1.07;;
15958;SDS011;8078;47.822;9.402;2023-04-01T14:21:23;2.40;;;1.33;;
15958;SDS011;8078;47.822;9.402;2023-04-01T14:24:20;1.37;;;1.20;;
15958;SDS011;8078;47.822;9.402;2023-04-01T14:27:13;1.53;;;1.40;;
15958;SDS011;8078;47.822;9.402;2023-04-01T14:38:52;1.20;;;1.20;;
15958;SDS011;8078;47.822;9.402;2023-04-01T14:47:04;1.13;;;1.13;;
15958;SDS011;8078;47.822;9.402;2023-04-01T14:49:47;1.40;;;1.20;;
15958;SDS011;8078;47.822;9.402;2023-04-01T14:52:22;2.63;;;1.40;;
15958;SDS011;8078;47.822;9.402;2023-04-01T14:54:52;1.80;;;1.30;;
15958;SDS011;8078;47.822;9.402;2023-04-01T14:57:26;1.30;;;1.20;;
15958;SDS011;8078;47.822;9.402;2023-04-01T14:59:59;1.03;;;1.03;;
15958;SDS011;8078;47.822;9.402;2023-04-01T15:10:54;2.67;;;1.70;;
15958;SDS011;8078;47.822;9.402;2023-04-01T15:16:59;1.53;;;1.30;;
15958;SDS011;8078;47.822;9.402;2023-04-01T15:20:01;1.23;;;1.20;;
15958;SDS011;8078;47.822;9.402;2023-04-01T15:22:58;1.33;;;1.10;;
15958;SDS011;8078;47.822;9.402;2023-04-01T15:25:54;1.43;;;1.33;;
15958;SDS011;8078;47.822;9.402;2023-04-01T15:37:02;1.40;;;1.30;;
15958;SDS011;8078;47.822;9.402;2023-04-01T15:45:03;2.13;;;1.60;;
15958;SDS011;8078;47.822;9.402;2023-04-01T16:08:41;1.33;;;1.30;;
15958;SDS011;8078;47.822;9.402;2023-04-01T16:11:21;1.20;;;1.10;;
15958;SDS011;8078;47.822;9.402;2023-04-01T16:16:46;1.30;;;1.20;;
15958;SDS011;8078;47.822;9.402;2023-04-01T16:22:12;1.00;;;1.00;;
15958;SDS011;8078;47.822;9.402;2023-04-01T16:27:43;1.27;;;1.17;;
15958;SDS011;8078;47.822;9.402;2023-04-01T16:30:37;1.00;;;1.00;;
15958;SDS011;8078;47.822;9.402;2023-04-01T16:35:47;1.10;;;1.10;;
15958;SDS011;8078;47.822;9.402;2023-04-01T16:38:25;1.03;;;1.03;;
15958;SDS011;8078;47.822;9.402;2023-04-01T16:41:09;1.50;;;1.20;;
15958;SDS011;8078;47.822;9.402;2023-04-01T16:43:44;1.30;;;1.20;;
15958;SDS011;8078;47.822;9.402;2023-04-01T16:46:32;1.23;;;1.10;;
15958;SDS011;8078;47.822;9.402;2023-04-01T16:49:03;1.20;;;1.10;;
15958;SDS011;8078;47.822;9.402;2023-04-01T16:51:32;1.00;;;1.00;;
15958;SDS011;8078;47.822;9.402;2023-04-01T16:59:36;1.70;;;1.10;;
15958;SDS011;8078;47.822;9.402;2023-04-01T17:02:45;1.10;;;1.10;;
15958;SDS011;8078;47.822;9.402;2023-04-01T17:05:44;1.40;;;1.00;;
15958;SDS011;8078;47.822;9.402;2023-04-01T17:08:30;1.07;;;1.00;;
15958;SDS011;8078;47.822;9.402;2023-04-01T17:11:00;1.33;;;1.33;;
15958;SDS011;8078;47.822;9.402;2023-04-01T17:16:26;1.00;;;1.00;;
15958;SDS011;8078;47.822;9.402;2023-04-01T17:29:56;1.30;;;1.30;;
15958;SDS011;8078;47.822;9.402;2023-04-01T17:35:50;2.30;;;1.10;;
15958;SDS011;8078;47.822;9.402;2023-04-01T17:44:26;1.10;;;1.10;;
15958;SDS011;8078;47.822;9.402;2023-04-01T17:50:02;1.30;;;1.30;;
15958;SDS011;8078;47.822;9.402;2023-04-01T17:52:42;1.13;;;1.13;;
15958;SDS011;8078;47.822;9.402;2023-04-01T17:58:20;1.10;;;1.00;;
15958;SDS011;8078;47.822;9.402;2023-04-01T18:08:59;1.57;;;1.30;;
15958;SDS011;8078;47.822;9.402;2023-04-01T18:11:34;1.27;;;1.23;;
15958;SDS011;8078;47.822;9.402;2023-04-01T18:20:20;1.30;;;1.20;;
15958;SDS011;8078;47.822;9.402;2023-04-01T18:23:03;2.37;;;1.20;;
15958;SDS011;8078;47.822;9.402;2023-04-01T18:25:44;1.50;;;1.40;;
15958;SDS011;8078;47.822;9.402;2023-04-01T18:30:41;1.20;;;1.20;;
15958;SDS011;8078;47.822;9.402;2023-04-01T18:33:18;1.40;;;1.30;;
15958;SDS011;8078;47.822;9.402;2023-04-01T18:38:47;2.57;;;1.43;;
15958;SDS011;8078;47.822;9.402;2023-04-01T18:41:15;2.33;;;1.30;;
15958;SDS011;8078;47.822;9.402;2023-04-01T18:49:38;2.03;;;1.30;;
15958;SDS011;8078;47.822;9.402;2023-04-01T18:57:26;1.20;;;1.10;;
15958;SDS011;8078;47.822;9.402;2023-04-01T19:00:05;1.27;;;1.20;;
15958;SDS011;8078;47.822;9.402;2023-04-01T19:05:58;1.47;;;1.27;;
15958;SDS011;8078;47.822;9.402;2023-04-01T19:08:34;2.30;;;1.20;;
15958;SDS011;8078;47.822;9.402;2023-04-01T19:14:00;1.53;;;1.33;;
15958;SDS011;8078;47.822;9.402;2023-04-01T19:16:42;1.40;;;1.20;;
15958;SDS011;8078;47.822;9.402;2023-04-01T19:19:13;1.20;;;1.10;;
15958;SDS011;8078;47.822;9.402;2023-04-01T19:21:57;1.77;;;1.50;;
15958;SDS011;8078;47.822;9.402;2023-04-01T19:27:10;1.30;;;1.30;;
15958;SDS011;8078;47.822;9.402;2023-04-01T19:40:28;1.90;;;1.80;;
15958;SDS011;8078;47.822;9.402;2023-04-01T19:43:08;1.53;;;1.30;;
15958;SDS011;8078;47.822;9.402;2023-04-01T19:46:07;1.50;;;1.40;;
15958;SDS011;8078;47.822;9.402;2023-04-01T19:51:48;1.97;;;1.50;;
15958;SDS011;8078;47.822;9.402;2023-04-01T19:54:21;2.37;;;2.17;;
15958;SDS011;8078;47.822;9.402;2023-04-01T19:57:05;2.67;;;1.40;;
15958;SDS011;8078;47.822;9.402;2023-04-01T20:08:40;2.90;;;1.70;;
15958;SDS011;8078;47.822;9.402;2023-04-01T20:14:09;2.50;;;1.60;;
15958;SDS011;8078;47.822;9.402;2023-04-01T20:22:01;1.70;;;1.60;;
15958;SDS011;8078;47.822;9.402;2023-04-01T20:24:44;1.80;;;1.70;;
15958;SDS011;8078;47.822;9.402;2023-04-01T20:29:41;1.70;;;1.60;;
15958;SDS011;8078;47.822;9.402;2023-04-01T20:34:58;2.47;;;1.63;;
15958;SDS011;8078;47.822;9.402;2023-04-01T20:37:57;1.83;;;1.70;;
15958;SDS011;8078;47.822;9.402;2023-04-01T20:46:19;1.80;;;1.50;;
15958;SDS011;8078;47.822;9.402;2023-04-01T20:48:58;2.50;;;1.97;;
15958;SDS011;8078;47.822;9.402;2023-04-01T20:51:32;1.70;;;1.60;;
15958;SDS011;8078;47.822;9.402;2023-04-01T20:54:17;4.20;;;1.93;;
15958;SDS011;8078;47.822;9.402;2023-04-01T20:57:00;2.10;;;1.80;;
15958;SDS011;8078;47.822;9.402;2023-04-01T21:02:48;1.60;;;1.50;;
15958;SDS011;8078;47.822;9.402;2023-04-01T21:08:10;2.43;;;1.80;;
15958;SDS011;8078;47.822;9.402;2023-04-01T21:11:10;2.47;;;1.60;;
15958;SDS011;8078;47.822;9.402;2023-04-01T21:17:01;2.60;;;1.40;;
15958;SDS011;8078;47.822;9.402;2023-04-01T21:38:59;2.17;;;1.73;;
15958;SDS011;8078;47.822;9.402;2023-04-01T21:47:22;3.50;;;2.00;;
15958;SDS011;8078;47.822;9.402;2023-04-01T21:50:25;2.03;;;1.83;;
15958;SDS011;8078;47.822;9.402;2023-04-01T22:00:58;3.13;;;1.60;;
15958;SDS011;8078;47.822;9.402;2023-04-01T22:03:41;2.80;;;1.80;;
15958;SDS011;8078;47.822;9.402;2023-04-01T22:08:51;2.30;;;2.10;;
15958;SDS011;8078;47.822;9.402;2023-04-01T22:17:16;1.90;;;1.60;;
15958;SDS011;8078;47.822;9.402;2023-04-01T22:25:17;2.63;;;2.00;;
15958;SDS011;8078;47.822;9.402;2023-04-01T22:27:46;3.60;;;2.33;;
15958;SDS011;8078;47.822;9.402;2023-04-01T22:30:28;2.83;;;2.37;;
15958;SDS011;8078;47.822;9.402;2023-04-01T22:33:43;2.60;;;2.40;;
15958;SDS011;8078;47.822;9.402;2023-04-01T22:36:40;5.23;;;2.70;;
15958;SDS011;8078;47.822;9.402;2023-04-01T22:39:24;4.13;;;2.30;;
15958;SDS011;8078;47.822;9.402;2023-04-01T22:50:19;4.13;;;2.80;;
15958;SDS011;8078;47.822;9.402;2023-04-01T22:52:58;2.93;;;2.73;;
15958;SDS011;8078;47.822;9.402;2023-04-01T22:55:30;5.70;;;3.07;;
15958;SDS011;8078;47.822;9.402;2023-04-01T23:01:24;4.07;;;2.80;;
15958;SDS011;8078;47.822;9.402;2023-04-01T23:03:54;3.90;;;2.70;;
15958;SDS011;8078;47.822;9.402;2023-04-01T23:06:31;2.47;;;2.27;;
15958;SDS011;8078;47.822;9.402;2023-04-01T23:09:04;6.60;;;2.67;;
15958;SDS011;8078;47.822;9.402;2023-04-01T23:11:42;3.80;;;2.50;;
15958;SDS011;8078;47.822;9.402;2023-04-01T23:16:56;4.87;;;2.70;;
15958;SDS011;8078;47.822;9.402;2023-04-01T23:19:37;2.90;;;2.60;;
15958;SDS011;8078;47.822;9.402;2023-04-01T23:35:52;2.30;;;2.10;;
15958;SDS011;8078;47.822;9.402;2023-04-01T23:38:31;2.50;;;2.20;;
15958;SDS011;8078;47.822;9.402;2023-04-01T23:41:01;1.93;;;1.83;;
15958;SDS011;8078;47.822;9.402;2023-04-01T23:43:29;3.30;;;2.07;;
15958;SDS011;8078;47.822;9.402;2023-04-01T23:45:58;2.10;;;2.00;;
15958;SDS011;8078;47.822;9.402;2023-04-01T23:48:39;4.20;;;1.90;;
15958;SDS011;8078;47.822;9.402;2023-04-01T23:51:13;2.63;;;2.20;;
15958;SDS011;8078;47.822;9.402;2023-04-01T23:53:47;2.40;;;1.90;;
15958;SDS011;8078;47.822;9.402;2023-04-01T23:56:21;1.80;;;1.70;;
15958;SDS011;8078;47.822;9.402;2023-04-01T23:58:50;4.40;;;2.20;;
